Rayong, Thailand

2:37 AM ICT on May 06, 2015 (GMT +0700)
Nhong Yai In | | Change Station
CLOSE
Current Station
Personal Weather Station
Location: Phe, Rayong
Elevation: 26 ft
Nearby Weather Stations

Elev 26 ft 12.62 °N, 101.40 °E | Updated 7 seconds ago

Scattered Clouds
Scattered Clouds
85.1 °F
Feels Like 99 °F
N
3.0
Wind Variable Wind from SSW
Gusts 5.0 mph

Today
High -- | Low -- °F
--% Chance of Precip.
Yesterday
High -- | Low -- °F
Precip. -- in
5:52 AM 6:30 PM
Full, 97% visible
Pressure 29.77 in
Visibility 5.0 miles
Clouds Few 2000 ft
Scattered Clouds 30000 ft
Heat Index 99 °F
Dew Point 80 °F
Humidity 84%
Rainfall 0.00 in
Snow Depth Not available.
UV 0 out of 12
Pollen Not available.
Air Quality Not available.
Flu Activity Not available.
METAR VTBU 051900Z 26003KT 8000 FEW020 SCT300 30/24 Q1008 A2977

More Conditions Fewer Conditions

Pressure 29.77 in
Visibility 5.0 miles
Clouds Few 2000 ft
Scattered Clouds 30000 ft
Heat Index 99 °F
Dew Point 80 °F
Humidity 84%
Rainfall 0.00 in
Snow Depth Not available.
UV 0 out of 12
Pollen Not available.
Air Quality Not available.
Flu Activity Not available.
METAR VTBU 051900Z 26003KT 8000 FEW020 SCT300 30/24 Q1008 A2977

More Conditions Fewer Conditions

10-Day Weather Forecast

Almanac

Astronomy

May. 06, 2015 Rise Set
Actual Time
Civil Twilight
Nautical Twilight
Astronomical Twilight
Moon
Length of Visible Light
Length of Day
Tomorrow will be .
, % of the Moon is Illuminated

Today's Extremes

Country Highs Country Lows

Community

WunderPhotos

Upload Photos

1,818,957 photos uploaded!

WunderBlogs® & News

Nearby

Air Quality

  Air Quality AQ Index Pollutant
Not available.

Snow Depth

Station Depth Elevation

Earthquake Activity

City Distance Mag. Time & Date
Minimum magnitude displayed is 2.5.

Coastal Water Temperatures

Place Temperature

Stations

Nearby Weather Stations

Station Location Temp. Windchill Dew Point Humidity Wind Precip. Elev Updated Type